Tiempo atmosférico en la estación meteorológica de Zarza La Mayor, Cáceres (336 m.)



Fecha
DESCASC
Temp. máxima en grados centígrados (hora)
DESCASC
Temp. mínima en grados centígrados (hora)
DESCASC
Temp. media en grados centígrados
DESCASC
Racha de viento máxima en m/sg (hora)
DESCASC
Velocidad máxima media en intervalos de 10 minutos(hora)
DESCASC
Precipitaciones diarias en mm
DESCASC
Precipitaciones de 00:00 a 06:00 en mm
DESCASC
Precipitaciones de 06:00 a 12:00 en mm
DESCASC
Precipitaciones de 12:00 a 18:00 en mm
DESCASC
Precipitaciones de 18:00 a 24:00 en mm
DESCASC
28-02-2021 17.4 (16:50) 6 (08:00) 11.7 6.11 (11:30) 3.61 (11:40) 0 0 0 0 0
27-02-2021 19.3 (16:40) 8.6 (05:30) 13.9 5 (14:50) 3.33 (03:30) 0 0 0 0 0
26-02-2021 15.6 (15:40) 9.9 (23:59) 12.8 9.44 (05:50) 5.83 (05:50) 0 0 0 0 0
25-02-2021 14.7 (15:50) 9.2 (00:00) 11.9 6.39 (23:59) 3.89 (04:50) 1.2 0 1.2 0 0
24-02-2021 18.5 (16:40) 6.1 (00:00) 12.3 10 (15:40) 6.11 (12:10) 0 0 0 0 0
23-02-2021 16.4 (15:50) 3.6 (00:00) 10 9.72 (15:20) 5.56 (15:20) 0 0 0 0 0
22-02-2021 15.6 (16:30) 1.3 (00:00) 8.5 6.67 (14:50) 4.72 (01:10) 0 0 0 0 0
21-02-2021 13.3 (05:10) 5.5 (00:00) 9.4 18.61 (05:20) 13.33 (05:20) 1 0 0.8 0.2 0
20-02-2021 14.7 (15:50) 8.2 (00:00) 11.4 10.56 (16:30) 6.67 (13:30) 0 0 0 0 0
19-02-2021 15.1 (17:50) 6.5 (00:00) 10.8 8.61 (17:20) 5.83 (16:30) 0 0 0 0 0
18-02-2021 16.5 (15:50) 8.7 (00:00) 12.6 6.67 (01:50) 4.44 (00:40) 0 0 0 0 0
17-02-2021 18.4 (17:20) 8.6 (00:00) 13.5 6.11 (23:59) 4.72 (23:59) 0 0 0 0 0
16-02-2021 17 (16:10) 6.4 (00:00) 11.7 5.83 (11:20) 3.89 (05:10) 0 0 0 0 0
15-02-2021 18.4 (16:20) 7.3 (00:00) 12.8 9.44 (17:20) 6.11 (17:30) 0 0 0 0 0
14-02-2021 19.2 (16:40) 6.3 (00:00) 12.8 6.39 (13:50) 3.61 (14:30) 0 0 0 0 0
13-02-2021 18.4 (17:40) 5.5 (00:00) 11.9 4.17 (03:50) 3.06 (00:40) 0 0 0 0 0
12-02-2021 17.7 (16:00) 8.9 (00:00) 13.3 10.56 (03:20) 6.94 (03:20) 6.2 6.2 0 0 0
11-02-2021 16.8 (16:50) 11.8 (00:00) 14.3 7.5 (15:00) 5.83 (21:30) 1.4 1.4 0 0 0
10-02-2021 16.3 (15:10) 8.5 (00:00) 12.4 14.72 (01:50) 9.44 (02:00) 0.2 0.2 0 0 0
09-02-2021 13 (16:40) 8.5 (00:00) 10.8 15.83 (11:20) 10 (11:20) 18 1.8 13.2 2.4 0.6
08-02-2021 13.6 (16:10) 7.5 (00:00) 10.6 14.72 (17:00) 9.17 (17:00) 9.6 8 1.6 0 0
07-02-2021 10.9 (13:50) 4.4 (00:00) 7.6 11.67 (23:30) 6.67 (23:30) 3.6 0 0 0.2 3.4
06-02-2021 12.6 (15:00) 7.8 (00:00) 10.2 5.56 (16:10) 3.61 (15:20) 2 1.4 0.2 0.2 0.2
05-02-2021 10.3 (13:30) 8 (00:00) 9.2 5.83 (01:10) 3.33 (01:10) 20.2 2.2 4.6 8.8 4.6
04-02-2021 11.2 (00:00) 8 (00:00) 9.6 5.28 (08:10) 3.61 (01:10) 25.4 3.6 10.8 8 3
03-02-2021 12.4 (12:30) 10.2 (00:00) 11.3 10.28 (02:20) 6.39 (02:10) 13 0.6 3.4 8.6 0.4
02-02-2021 13.9 (13:00) 10.5 (00:00) 12.2 8.33 (14:20) 5.28 (12:00) 0.2 0.2 0 0 0
01-02-2021 15.7 (14:00) 8.6 (00:00) 12.2 9.72 (13:40) 6.94 (04:00) 0 0 0 0 0

Gráficas

Temp. máximas Temp. mínimas Temp. medias Precipitaciones Rachas de viento máximas Velocidades máximas media en intervalos de 10 minutos

Datos horarios

Fecha y hora oficial Temperatura (ºC) Velocidad del viento (km/h) Dirección del viento Racha (km/h) Dirección de racha Precipitación (mm) Presión (hPa) Tendencia (hPa) Humedad (%)
2021-03-02 23:00:00 12 4 Norte 10 Este 0 -- -- 79
2021-03-02 22:00:00 12.5 7 Este 11 Este 0 -- -- 74
2021-03-02 21:00:00 13.1 5 Este 9 Este 0 -- -- 73
2021-03-02 20:00:00 13.5 6 Este 9 Sudeste 0 -- -- 74
2021-03-02 19:00:00 14.7 6 Sudeste 13 Este 0 -- -- 70
2021-03-02 18:00:00 15.6 8 Este 12 Sudeste 0 -- -- 67
2021-03-02 17:00:00 16.2 4 Sudeste 16 Sudeste 0 -- -- 62
2021-03-02 16:00:00 17.2 6 Este 20 Sudeste 0 -- -- 58
2021-03-02 15:00:00 16.9 12 Sudeste 24 Este 0 -- -- 61
2021-03-02 14:00:00 16 11 Este 22 Este 0 -- -- 63
2021-03-02 13:00:00 15 16 Este 22 Este 0 -- -- 68
2021-03-02 12:00:00 12.7 6 Nordeste 12 Nordeste 0 -- -- 76
2021-03-02 11:00:00 11.4 6 Este 12 Este 0 -- -- 81
2021-03-02 10:00:00 10.5 7 Este 14 Este 0 -- -- 86
2021-03-02 09:00:00 9.4 7 Nordeste 10 Nordeste 0 -- -- 88
2021-03-02 08:00:00 9.3 3 Nordeste 10 Este 0 -- -- 88
2021-03-02 07:00:00 9.1 3 Nordeste 15 Este 0 -- -- 88
2021-03-02 06:00:00 9.3 7 Este 18 Este 0 -- -- 87
2021-03-02 05:00:00 9.2 13 Este 18 Este 0 -- -- 88
2021-03-02 04:00:00 8.7 10 Este 13 Este 0 -- -- 89
2021-03-02 03:00:00 9.7 8 Este 12 Este 0 -- -- 86
2021-03-02 02:00:00 9.9 3 Nordeste 16 Este 0 -- -- 85
2021-03-02 01:00:00 9.9 5 Nordeste 11 Este 0 -- -- 85
2021-03-02 00:00:00 10 8 Este 17 Este 0 -- -- 83
2021-03-01 23:00:00 10.3 9 Este 21 Este 0 -- -- 82
2021-03-01 22:00:00 11.3 12 Este 22 Este 0 -- -- 77
2021-03-01 21:00:00 12.1 10 Este 17 Este 0 -- -- 76
2021-03-01 20:00:00 12.7 12 Este 27 Este 0 -- -- 74
2021-03-01 19:00:00 13.7 13 Este 22 Este 0 -- -- 69
2021-03-01 18:00:00 14.5 13 Este 20 Este 0 -- -- 64
2021-03-01 17:00:00 15.3 13 Este 22 Este 0 -- -- 61
2021-03-01 16:00:00 16.1 12 Este 29 Este 0 -- -- 59
2021-03-01 15:00:00 16 18 Sudeste 27 Sudeste 0 -- -- 62
2021-03-01 14:00:00 14.5 16 Este 26 Este 0 -- -- 63
2021-03-01 13:00:00 15.1 18 Este 31 Este 0 -- -- 60
2021-03-01 12:00:00 13.3 16 Este 29 Este 0 -- -- 66
2021-03-01 11:00:00 11.8 13 Este 22 Este 0 -- -- 73
2021-03-01 10:00:00 10.1 6 Nordeste 14 Norte 0 -- -- 80
2021-03-01 09:00:00 9.3 3 Nordeste 19 Este 0 -- -- 84
2021-03-01 08:00:00 9.1 10 Este 17 Este 0 -- -- 80
2021-03-01 07:00:00 9.6 14 Este 29 Este 0 -- -- 77
2021-03-01 06:00:00 9.8 8 Nordeste 15 Este 0 -- -- 80
2021-03-01 05:00:00 9.8 7 Este 14 Este 0 -- -- 79
2021-03-01 04:00:00 9.4 4 Este 10 Este 0 -- -- 83
2021-03-01 03:00:00 9.2 3 Este 6 Este 0 -- -- 83
2021-03-01 02:00:00 10 4 Nordeste 14 Nordeste 0 -- -- 79
2021-03-01 01:00:00 9.5 4 Norte 9 Nordeste 0 -- -- 81
2021-03-01 00:00:00 9.9 4 Nordeste 13 Este 0 -- -- 77
2021-02-28 23:00:00 10.9 8 Este 14 Este 0 -- -- 73
2021-02-28 22:00:00 11.3 10 Este 14 Este 0 -- -- 72
2021-02-28 21:00:00 12.5 9 Este 12 Nordeste 0 -- -- 67
2021-02-28 20:00:00 13.2 9 Este 13 Este 0 -- -- 65
2021-02-28 19:00:00 14.9 8 Este 12 Este 0 -- -- 62
2021-02-28 18:00:00 16.7 8 Este 15 Este 0 -- -- 55
2021-02-28 17:00:00 17.3 7 Este 20 Este 0 -- -- 53
2021-02-28 16:00:00 17 10 Este 19 Este 0 -- -- 52
2021-02-28 15:00:00 16.6 6 Este 17 Sudeste 0 -- -- 52
2021-02-28 14:00:00 16.1 10 Sudeste 18 Sudeste 0 -- -- 56
2021-02-28 13:00:00 15.6 9 Este 20 Sudeste 0 -- -- 57
2021-02-28 12:00:00 14.2 12 Este 22 Este 0 -- -- 61
2021-02-28 11:00:00 11.9 13 Nordeste 21 Nordeste 0 -- -- 66
2021-02-28 10:00:00 10.4 9 Este 21 Este 0 -- -- 70
2021-02-28 09:00:00 8.4 6 Nordeste 11 Nordeste 0 -- -- 78
2021-02-28 08:00:00 6 2 Norte 10 Este 0 -- -- 89
2021-02-28 07:00:00 6.8 6 Nordeste 12 Este 0 -- -- 89
2021-02-28 06:00:00 8 2 Nordeste 14 Este 0 -- -- 82
2021-02-28 05:00:00 9.4 7 Nordeste 9 Este 0 -- -- 76
2021-02-28 04:00:00 8.9 4 Norte 6 Nordeste 0 -- -- 79
2021-02-28 03:00:00 10.3 5 Norte 14 Nordeste 0 -- -- 70
2021-02-28 02:00:00 10.6 6 Este 14 Este 0 -- -- 71
2021-02-28 01:00:00 10.7 9 Este 12 Este 0 -- -- 73
2021-02-28 00:00:00 12.4 5 Norte 7 Norte 0 -- -- 66
2021-02-27 23:00:00 12 4 Norte 8 Nordeste 0 -- -- 70
2021-02-27 22:00:00 13.4 8 Nordeste 9 Nordeste 0 -- -- 65
2021-02-27 21:00:00 14.3 4 Noroeste 6 Oeste 0 -- -- 65
2021-02-27 20:00:00 16.4 4 Nordeste 6 Nordeste 0 -- -- 57
2021-02-27 19:00:00 17 0 Calma 14 Nordeste 0 -- -- 56
2021-02-27 18:00:00 18.7 8 Norte 15 Nordeste 0 -- -- 51
2021-02-27 17:00:00 19.2 9 Norte 17 Norte 0 -- -- 49
2021-02-27 16:00:00 18.8 8 Norte 18 Nordeste 0 -- -- 52
2021-02-27 15:00:00 18.3 9 Nordeste 18 Norte 0 -- -- 48
2021-02-27 14:00:00 17 8 Nordeste 16 Nordeste 0 -- -- 51
2021-02-27 13:00:00 15.4 11 Nordeste 17 Nordeste 0 -- -- 63
2021-02-27 12:00:00 14 8 Nordeste 13 Nordeste 0 -- -- 68
2021-02-27 11:00:00 12.8 7 Nordeste 13 Nordeste 0 -- -- 76
2021-02-27 10:00:00 10.6 4 Nordeste 10 Norte 0 -- -- 81
2021-02-27 09:00:00 9.1 9 Norte 12 Nordeste 0 -- -- 84
2021-02-27 08:00:00 9 8 Norte 13 Nordeste 0 -- -- 85
2021-02-27 07:00:00 8.6 5 Nordeste 9 Nordeste 0 -- -- 90
2021-02-27 06:00:00 9.3 6 Nordeste 7 Nordeste 0 -- -- 88
2021-02-27 05:00:00 9 5 Norte 6 Nordeste 0 -- -- 91
2021-02-27 04:00:00 9.8 8 Nordeste 16 Nordeste 0 -- -- 87
2021-02-27 03:00:00 9.7 3 Nordeste 10 Este 0 -- -- 89
2021-02-27 02:00:00 9.9 5 Norte 9 Norte 0 -- -- 89
2021-02-27 01:00:00 9.8 2 Noroeste 6 Norte 0 -- -- 90
2021-02-27 00:00:00 9.9 6 Noroeste 8 Norte 0 -- -- 89
2021-02-26 23:00:00 10.5 2 Norte 5 Norte 0 -- -- 87
2021-02-26 22:00:00 12 2 Oeste 8 Nordeste 0 -- -- 78
2021-02-26 21:00:00 13.1 4 Nordeste 4 Nordeste 0 -- -- 74
2021-02-26 20:00:00 12.8 0 Calma 9 Norte 0 -- -- 77
2021-02-26 19:00:00 14 7 Norte 12 Nordeste 0 -- -- 73
2021-02-26 18:00:00 14.9 7 Norte 16 Nordeste 0 -- -- 70
2021-02-26 17:00:00 15.3 12 Nordeste 23 Este 0 -- -- 64
2021-02-26 16:00:00 15.5 12 Este 25 Este 0 -- -- 65
2021-02-26 15:00:00 15.3 11 Nordeste 27 Nordeste 0 -- -- 68
2021-02-26 14:00:00 14.6 15 Nordeste 27 Nordeste 0 -- -- 69
2021-02-26 13:00:00 14.1 17 Nordeste 30 Nordeste 0 -- -- 70
2021-02-26 12:00:00 13.5 12 Nordeste 27 Nordeste 0 -- -- 70
2021-02-26 11:00:00 12.7 14 Nordeste 24 Nordeste 0 -- -- 73
2021-02-26 10:00:00 11.9 10 Este 27 Nordeste 0 -- -- 78
2021-02-26 09:00:00 11.2 17 Este 28 Nordeste 0 -- -- 79
2021-02-26 08:00:00 11.1 17 Nordeste 30 Nordeste 0 -- -- 80
2021-02-26 07:00:00 11.6 18 Nordeste 32 Nordeste 0 -- -- 78
2021-02-26 06:00:00 11.9 19 Nordeste 34 Este 0 -- -- 75
2021-02-26 05:00:00 11.7 15 Nordeste 25 Nordeste 0 -- -- 75
2021-02-26 04:00:00 11.6 9 Nordeste 19 Nordeste 0 -- -- 74
2021-02-26 03:00:00 11.4 12 Nordeste 16 Nordeste 0 -- -- 75
2021-02-26 02:00:00 11.8 9 Nordeste 15 Nordeste 0 -- -- 75
2021-02-26 01:00:00 11.6 10 Nordeste 18 Nordeste 0 -- -- 76
2021-02-26 00:00:00 11.7 13 Nordeste 23 Nordeste 0 -- -- 76
2021-02-25 23:00:00 11.7 7 Nordeste 11 Nordeste 0 -- -- 76
2021-02-25 22:00:00 11.6 5 Norte 8 Nordeste 0 -- -- 79
2021-02-25 21:00:00 11.9 4 Nordeste 13 Nordeste 0 -- -- 76
2021-02-25 20:00:00 12.1 8 Este 15 Este 0 -- -- 75
2021-02-25 19:00:00 13 9 Nordeste 22 Este 0 -- -- 73
2021-02-25 18:00:00 14 12 Este 21 Este 0 -- -- 73
2021-02-25 17:00:00 14.4 9 Este 22 Este 0 -- -- 71
2021-02-25 16:00:00 14.7 10 Este 20 Este 0 -- -- 71
2021-02-25 15:00:00 14.5 12 Este 21 Este 0 -- -- 71
2021-02-25 14:00:00 13.3 11 Nordeste 21 Este 0 -- -- 78
2021-02-25 13:00:00 12.1 10 Este 21 Este 0 -- -- 80
2021-02-25 12:00:00 11.2 9 Este 19 Este 0 -- -- 84
2021-02-25 11:00:00 10.3 13 Este 22 Sudeste 0 -- -- 87
2021-02-25 10:00:00 9.9 9 Este 15 Este 0 -- -- 90
2021-02-25 09:00:00 9.4 4 Este 15 Este 0 -- -- 93
2021-02-25 08:00:00 9.2 7 Este 12 Nordeste 0.6 -- -- 92
2021-02-25 07:00:00 10 5 Sur 19 Este 0.6 -- -- 88
2021-02-25 06:00:00 10.2 12 Sudeste 18 Este 0 -- -- 83
2021-02-25 05:00:00 10.2 13 Sudeste 20 Este 0 -- -- 84
2021-02-25 04:00:00 9.7 11 Este 14 Este 0 -- -- 88
2021-02-25 03:00:00 9.8 9 Este 13 Este 0 -- -- 87
2021-02-25 02:00:00 9.8 0 Calma 14 Sudeste 0 -- -- 84
2021-02-25 01:00:00 11.1 3 Este 7 Este 0 -- -- 78
2021-02-25 00:00:00 12.5 5 Este 10 Sudeste 0 -- -- 73
2021-02-24 23:00:00 12.8 8 Sudeste 13 Este 0 -- -- 72
2021-02-24 22:00:00 13.5 12 Este 15 Sudeste 0 -- -- 70
2021-02-24 21:00:00 13.2 9 Sudeste 13 Sudeste 0 -- -- 70
2021-02-24 20:00:00 13.8 5 Este 7 Este 0 -- -- 66
2021-02-24 19:00:00 15.6 5 Sudeste 22 Sudeste 0 -- -- 60
2021-02-24 18:00:00 17.5 16 Sudeste 24 Sudeste 0 -- -- 53
2021-02-24 17:00:00 18.4 12 Sudeste 26 Sur 0 -- -- 49
2021-02-24 16:00:00 18.2 18 Sudeste 36 Sudeste 0 -- -- 48
2021-02-24 15:00:00 17.6 19 Sudeste 32 Sudeste 0 -- -- 51
2021-02-24 14:00:00 16.7 14 Sudeste 27 Este 0 -- -- 54
2021-02-24 13:00:00 15 19 Este 35 Este 0 -- -- 58
2021-02-24 12:00:00 14.1 21 Este 30 Sudeste 0 -- -- 60
2021-02-24 11:00:00 12.1 10 Este 18 Este 0 -- -- 67
2021-02-24 10:00:00 10 8 Nordeste 15 Este 0 -- -- 73
2021-02-24 09:00:00 7.2 8 Este 13 Nordeste 0 -- -- 83
2021-02-24 08:00:00 6.1 8 Este 15 Este 0 -- -- 85
2021-02-24 07:00:00 6.4 10 Este 13 Este 0 -- -- 86
2021-02-24 06:00:00 7 10 Este 16 Este 0 -- -- 83
2021-02-24 05:00:00 7.2 11 Este 14 Este 0 -- -- 82
2021-02-24 04:00:00 7.3 9 Este 18 Este 0 -- -- 82
2021-02-24 03:00:00 7.7 12 Este 17 Este 0 -- -- 81
2021-02-24 02:00:00 8.2 12 Este 18 Este 0 -- -- 78
2021-02-24 01:00:00 9 12 Este 17 Este 0 -- -- 74
2021-02-24 00:00:00 9.5 13 Este 20 Este 0 -- -- 71
2021-02-23 23:00:00 9.6 12 Este 17 Este 0 -- -- 70
2021-02-23 22:00:00 9.3 11 Este 15 Este 0 -- -- 70
2021-02-23 21:00:00 10.4 6 Este 8 Este 0 -- -- 64
2021-02-23 20:00:00 11.5 7 Este 12 Sudeste 0 -- -- 58
2021-02-23 19:00:00 14 9 Sudeste 21 Sudeste 0 -- -- 51
2021-02-23 18:00:00 16.1 13 Sudeste 28 Sudeste 0 -- -- 43
2021-02-23 17:00:00 16.3 19 Este 33 Este 0 -- -- 40
2021-02-23 16:00:00 16.4 18 Sudeste 35 Este 0 -- -- 40
2021-02-23 15:00:00 15.8 14 Este 30 Este 0 -- -- 44
2021-02-23 14:00:00 14.7 19 Este 32 Este 0 -- -- 48
2021-02-23 13:00:00 14 15 Este 31 Nordeste 0 -- -- 52
2021-02-23 12:00:00 12.6 17 Este 24 Este 0 -- -- 61
2021-02-23 11:00:00 10.7 12 Este 20 Este 0 -- -- 70
2021-02-23 10:00:00 7.8 8 Nordeste 14 Nordeste 0 -- -- 78
2021-02-23 09:00:00 5 8 Nordeste 14 Este 0 -- -- 88
2021-02-23 08:00:00 3.7 5 Este 8 Este 0 -- -- 91
2021-02-23 07:00:00 4.4 4 Nordeste 10 Este 0 -- -- 90
2021-02-23 06:00:00 4.4 8 Este 13 Nordeste 0 -- -- 91
2021-02-23 05:00:00 4.3 7 Este 12 Este 0 -- -- 91
2021-02-23 04:00:00 4.8 6 Este 10 Este 0 -- -- 91
2021-02-23 03:00:00 4.8 3 Nordeste 6 Nordeste 0 -- -- 93
2021-02-23 02:00:00 4.8 0 Calma 5 Nordeste 0 -- -- 91
2021-02-23 01:00:00 5.5 4 Este 10 Este 0 -- -- 87
2021-02-23 00:00:00 6.8 3 Nordeste -- -- 0 -- -- 81
2021-02-22 23:00:00 8 0 Calma 7 Sudeste 0 -- -- 75
2021-02-22 22:00:00 9.3 3 Sudeste 5 Sudeste 0 -- -- 67
2021-02-22 21:00:00 10.4 -- -- -- -- 0 -- -- 61
2021-02-22 20:00:00 10.7 4 Sudoeste 8 Sudoeste 0 -- -- 61
2021-02-22 19:00:00 12.7 6 Sudoeste 19 Sudoeste 0 -- -- 56
2021-02-22 18:00:00 14.1 9 Sudoeste 20 Sudoeste 0 -- -- 54
2021-02-22 17:00:00 15.3 10 Oeste 20 Sudoeste 0 -- -- 48
2021-02-22 16:00:00 14.5 12 Oeste 24 Sudoeste 0 -- -- 55
2021-02-22 15:00:00 13.9 11 Sudoeste 24 Sudoeste 0 -- -- 55
2021-02-22 14:00:00 13.7 11 Sudoeste 22 Sudoeste 0 -- -- 55
2021-02-22 13:00:00 12.1 11 Sudoeste 20 Sudoeste 0 -- -- 64
2021-02-22 12:00:00 10.9 3 Oeste 7 Oeste 0 -- -- 65
2021-02-22 11:00:00 8.8 2 Oeste 4 Oeste 0 -- -- 80
2021-02-22 10:00:00 5.4 2 Norte 4 Nordeste 0 -- -- 90
2021-02-22 09:00:00 2.3 0 Calma 12 Nordeste 0 -- -- 95
2021-02-22 08:00:00 3.2 5 Sudoeste 9 Sudoeste 0 -- -- 95
2021-02-22 07:00:00 2.9 3 Sudoeste 7 Sur 0 -- -- 95
2021-02-22 06:00:00 2.4 4 Nordeste 10 Nordeste 0 -- -- 93
2021-02-22 05:00:00 3.4 3 Sudoeste 11 Sudoeste 0 -- -- 92
2021-02-22 04:00:00 3.8 6 Sudoeste 11 Sudoeste 0 -- -- 91
2021-02-22 03:00:00 4.4 3 Oeste 13 Sudoeste 0 -- -- 90
2021-02-22 02:00:00 4.2 7 Oeste 22 Sudoeste 0 -- -- 90
2021-02-22 01:00:00 4.5 15 Sudoeste 21 Sudoeste 0 -- -- 89
2021-02-22 00:00:00 5.5 6 Oeste 21 Oeste 0 -- -- 83
2021-02-21 23:00:00 6.2 13 Sudoeste 22 Oeste 0 -- -- 82
2021-02-21 22:00:00 7 16 Sudoeste 27 Oeste 0 -- -- 78
2021-02-21 21:00:00 8 17 Sudoeste 27 Sudoeste 0 -- -- 76
2021-02-21 20:00:00 9 14 Sudoeste 22 Oeste 0 -- -- 74
2021-02-21 19:00:00 10.2 15 Oeste 36 Sudoeste 0 -- -- 68
2021-02-21 18:00:00 11.6 12 Oeste 24 Oeste 0 -- -- 61
2021-02-21 17:00:00 12 15 Noroeste 25 Oeste 0 -- -- 57
2021-02-21 16:00:00 11 13 Noroeste 33 Noroeste 0 -- -- 64
2021-02-21 15:00:00 11.1 19 Noroeste 40 Oeste 0 -- -- 63
2021-02-21 14:00:00 10.5 25 Oeste 41 Oeste 0.2 -- -- 67
2021-02-21 13:00:00 9.9 9 Oeste 17 Este 0 -- -- 76
2021-02-21 12:00:00 8.6 11 Nordeste 27 Norte 0 -- -- 81
2021-02-21 11:00:00 7.5 12 Norte 26 Norte 0 -- -- 84
2021-02-21 10:00:00 7.3 8 Oeste 24 Sudoeste 0.2 -- -- 95
2021-02-21 09:00:00 7.3 15 Sudoeste 26 Sudoeste 0.2 -- -- 93
2021-02-21 08:00:00 8.1 17 Sudoeste 30 Sur 0.4 -- -- 92
2021-02-21 07:00:00 9.5 21 Sudoeste 44 Sur 0 -- -- 86
2021-02-21 06:00:00 11.9 31 Sur 67 Sur 0 -- -- 78
2021-02-21 05:00:00 13.2 36 Sudeste 66 Sudeste 0 -- -- 65
2021-02-21 04:00:00 12.2 27 Sudeste 54 Sudeste 0 -- -- 65
2021-02-21 03:00:00 12.5 17 Este 36 Este 0 -- -- 65
2021-02-21 02:00:00 12.7 23 Este 39 Este 0 -- -- 64
2021-02-21 01:00:00 12.6 21 Este 31 Este 0 -- -- 64
2021-02-21 00:00:00 12.8 17 Este 27 Este 0 -- -- 57
2021-02-20 23:00:00 12.4 10 Sudeste 18 Este 0 -- -- 60
2021-02-20 22:00:00 12.8 9 Este 24 Sudeste 0 -- -- 61
2021-02-20 21:00:00 13.3 13 Sudeste 26 Este 0 -- -- 60
2021-02-20 20:00:00 13.3 20 Este 38 Este 0 -- -- 61
2021-02-20 19:00:00 13.5 24 Sudeste 37 Sudeste 0 -- -- 62
2021-02-20 18:00:00 13.7 17 Sudeste 28 Sudeste 0 -- -- 66
2021-02-20 17:00:00 14.4 21 Sudeste 38 Sudeste 0 -- -- 61
2021-02-20 16:00:00 14.6 21 Sudeste 37 Este 0 -- -- 64
2021-02-20 15:00:00 14 18 Sudeste 37 Sudeste 0 -- -- 68
2021-02-20 14:00:00 13.5 22 Sudeste 37 Sudeste 0 -- -- 72
2021-02-20 13:00:00 13.2 19 Sudeste 31 Sudeste 0 -- -- 74
2021-02-20 12:00:00 11.9 14 Sudeste 27 Sudeste 0 -- -- 79
2021-02-20 11:00:00 11 14 Sudeste 29 Sudeste 0 -- -- 85
2021-02-20 10:00:00 10.1 15 Sudeste 31 Este 0 -- -- 89
2021-02-20 09:00:00 9.2 13 Sudeste 19 Este 0 -- -- 92
2021-02-20 08:00:00 8.9 13 Este 18 Este 0 -- -- 93
2021-02-20 07:00:00 8.9 8 Este 13 Este 0 -- -- 93
2021-02-20 06:00:00 8.7 8 Este 13 Sudeste 0 -- -- 93
2021-02-20 05:00:00 9.1 8 Sudeste 15 Este 0 -- -- 93
2021-02-20 04:00:00 8.5 3 Este 8 Sur 0 -- -- 93
2021-02-20 03:00:00 8.5 6 Este 18 Este 0 -- -- 90
2021-02-20 02:00:00 9.2 10 Sudeste 15 Sudeste 0 -- -- 89
2021-02-20 01:00:00 9.4 4 Sudeste 13 Sudeste 0 -- -- 88
2021-02-20 00:00:00 10.2 12 Sudeste 28 Sur 0 -- -- 86
2021-02-19 23:00:00 11.1 17 Sur 24 Sur 0 -- -- 83
2021-02-19 22:00:00 11 14 Sudeste 23 Sudeste 0 -- -- 83
2021-02-19 21:00:00 11.7 16 Sudeste 28 Sudeste 0 -- -- 80
2021-02-19 20:00:00 13 19 Sudeste 29 Sudeste 0 -- -- 76
2021-02-19 19:00:00 13.5 15 Sudeste 25 Sudeste 0 -- -- 75
2021-02-19 18:00:00 15.1 19 Sudeste 31 Sudeste 0 -- -- 69
2021-02-19 17:00:00 14.5 18 Sudeste 30 Sudeste 0 -- -- 71
2021-02-19 16:00:00 14.4 17 Sur 28 Sudeste 0 -- -- 69
2021-02-19 15:00:00 13.9 13 Sudeste 30 Sur 0 -- -- 71
2021-02-19 14:00:00 13.6 16 Sur 26 Sur 0 -- -- 71
2021-02-19 13:00:00 13.4 17 Sur 28 Sudeste 0 -- -- 72
2021-02-19 12:00:00 11.5 17 Sur 24 Sudeste 0 -- -- 83
2021-02-19 11:00:00 11.2 9 Este 16 Este 0 -- -- 83
2021-02-19 10:00:00 8.4 6 Este 10 Este 0 -- -- 96
2021-02-19 09:00:00 7 3 Este 8 Este 0 -- -- 97
2021-02-19 08:00:00 7.7 6 Sudeste 11 Sudeste 0 -- -- 96
2021-02-19 07:00:00 6.9 5 Sudeste 10 Sur 0 -- -- 96
2021-02-19 06:00:00 6.7 4 Este 6 Sudeste 0 -- -- 93
2021-02-19 05:00:00 7.8 2 Sudeste 16 Sudeste 0 -- -- 89
2021-02-19 04:00:00 8.9 13 Sudeste 16 Sudeste 0 -- -- 85
2021-02-19 03:00:00 9.2 8 Sudeste 12 Sudeste 0 -- -- 84
2021-02-19 02:00:00 10 7 Sur 13 Sur 0 -- -- 82
2021-02-19 01:00:00 10.3 9 Sudeste 16 Sur 0 -- -- 79
2021-02-19 00:00:00 11 8 Sudeste 13 Sur 0 -- -- 74
2021-02-18 23:00:00 12 8 Sur 13 Sur 0 -- -- 72
2021-02-18 22:00:00 13.1 10 Sur 18 Sur 0 -- -- 68
2021-02-18 21:00:00 13.5 8 Sur 14 Sur 0 -- -- 69
2021-02-18 20:00:00 14.1 8 Sur 15 Sur 0 -- -- 65
2021-02-18 19:00:00 15 12 Sur 24 Sudoeste 0 -- -- 59
2021-02-18 18:00:00 16.4 8 Sur 21 Sudeste 0 -- -- 65
2021-02-18 17:00:00 15.9 13 Sudeste 21 Sur 0 -- -- 65
2021-02-18 16:00:00 16.3 15 Sur 22 Sur 0 -- -- 66
2021-02-18 15:00:00 16 8 Sur 21 Sur 0 -- -- 68
2021-02-18 14:00:00 14.2 12 Sur 23 Sudoeste 0 -- -- 75
2021-02-18 13:00:00 13.1 12 Sur 21 Sur 0 -- -- 80
2021-02-18 12:00:00 12.4 12 Sudeste 22 Sudeste 0 -- -- 82
2021-02-18 11:00:00 11.5 13 Sudeste 19 Sudeste 0 -- -- 86
2021-02-18 10:00:00 10.2 8 Sudeste 14 Sudeste 0 -- -- 91
2021-02-18 09:00:00 9 9 Sudeste 15 Sudeste 0 -- -- 94
2021-02-18 08:00:00 8.7 10 Sur 15 Sur 0 -- -- 93
2021-02-18 07:00:00 9.4 11 Sur 15 Sudeste 0 -- -- 93
2021-02-18 06:00:00 9.7 8 Sudeste 10 Sudeste 0 -- -- 93
2021-02-18 05:00:00 10.2 6 Sudeste 12 Sur 0 -- -- 90
2021-02-18 04:00:00 10.5 7 Sur 14 Sur 0 -- -- 90
2021-02-18 03:00:00 10.3 8 Sur 16 Sudoeste 0 -- -- 92
2021-02-18 02:00:00 10.3 15 Sudoeste 24 Sudoeste 0 -- -- 92
2021-02-18 01:00:00 10.8 14 Sudoeste 23 Sudoeste 0 -- -- 92
2021-02-18 00:00:00 11.6 17 Sudoeste 22 Sudoeste 0 -- -- 89
2021-02-17 23:00:00 12.1 12 Sur 17 Sudeste 0 -- -- 80
2021-02-17 22:00:00 12.8 15 Sudeste 19 Sur 0 -- -- 76
2021-02-17 21:00:00 13.1 12 Sur 16 Sur 0 -- -- 76
2021-02-17 20:00:00 14 12 Sur 17 Sur 0 -- -- 73
2021-02-17 19:00:00 15.5 6 Sudeste 11 Sudeste 0 -- -- 74
2021-02-17 18:00:00 17 7 Sudeste 14 Sudeste 0 -- -- 68
2021-02-17 17:00:00 18.3 10 Sudeste 15 Sur 0 -- -- 61
2021-02-17 16:00:00 17.7 8 Sudeste 16 Sudeste 0 -- -- 61
2021-02-17 15:00:00 17.2 11 Sur 18 Sudeste 0 -- -- 66
2021-02-17 14:00:00 16.5 7 Sudeste 15 Sudeste 0 -- -- 69
2021-02-17 13:00:00 15.6 7 Sudeste 14 Sudeste 0 -- -- 71
2021-02-17 12:00:00 14.2 8 Sudeste 13 Este 0 -- -- 79
2021-02-17 11:00:00 12.4 4 Este 8 Este 0 -- -- 82
2021-02-17 10:00:00 10 4 Este 12 Este 0 -- -- 93
2021-02-17 09:00:00 9 5 Este 14 Este 0 -- -- 96
2021-02-17 08:00:00 8.6 8 Este 11 Este 0 -- -- 96
2021-02-17 07:00:00 9 2 Este 8 Este 0 -- -- 95
2021-02-17 06:00:00 9.2 4 Este 6 Este 0 -- -- 95
2021-02-17 05:00:00 9.7 0 Calma 9 Sudeste 0 -- -- 93
2021-02-17 04:00:00 10.2 3 Este 10 Sudeste 0 -- -- 91
2021-02-17 03:00:00 10 8 Sudeste 9 Sudeste 0 -- -- 93
2021-02-17 02:00:00 10.5 0 Calma 5 Sudoeste 0 -- -- 91
2021-02-17 01:00:00 11.4 4 Sudoeste 10 Sur 0 -- -- 87
2021-02-17 00:00:00 12 8 Sur 14 Sur 0 -- -- 84
2021-02-16 23:00:00 12.1 11 Sudeste 14 Sur 0 -- -- 84
2021-02-16 22:00:00 12.2 9 Sur 12 Sur 0 -- -- 84
2021-02-16 21:00:00 12.4 0 Calma 3 Nordeste 0 -- -- 82
2021-02-16 20:00:00 13 0 Calma 3 Norte 0 -- -- 79
2021-02-16 19:00:00 14.1 0 Calma 6 Oeste 0 -- -- 76
2021-02-16 18:00:00 15.3 0 Calma 10 Sudeste 0 -- -- 72
2021-02-16 17:00:00 15.7 7 Sudeste 14 Sur 0 -- -- 67
2021-02-16 16:00:00 16.8 5 Sudeste 12 Sudoeste 0 -- -- 62
2021-02-16 15:00:00 16 2 Norte 10 Sudoeste 0 -- -- 64
2021-02-16 14:00:00 14.6 9 Sur 14 Sur 0 -- -- 66
2021-02-16 13:00:00 14.2 6 Sur 15 Este 0 -- -- 67
2021-02-16 12:00:00 13.9 10 Sudeste 21 Este 0 -- -- 67
2021-02-16 11:00:00 10.3 12 Este 18 Este 0 -- -- 87
2021-02-16 10:00:00 9.1 5 Este 10 Este 0 -- -- 91
2021-02-16 09:00:00 6.6 0 Calma 4 Sudeste 0 -- -- 93
2021-02-16 08:00:00 6.5 0 Calma 4 Noroeste 0 -- -- 92
2021-02-16 07:00:00 7.2 2 Este 15 Este 0 -- -- 90
2021-02-16 06:00:00 7.6 7 Sudeste 17 Este 0 -- -- 88
2021-02-16 05:00:00 8.1 11 Sudeste 16 Este 0 -- -- 88
2021-02-16 04:00:00 8.7 9 Sudeste 16 Sudeste 0 -- -- 85
2021-02-16 03:00:00 9.7 13 Sudeste 21 Sudeste 0 -- -- 82
2021-02-16 02:00:00 9 4 Este 13 Este 0 -- -- 86
2021-02-16 01:00:00 10.2 11 Este 16 Este 0 -- -- 82
2021-02-16 00:00:00 10.4 11 Este 18 Este 0 -- -- 83
2021-02-15 23:00:00 10.8 6 Este 16 Este 0 -- -- 81
2021-02-15 22:00:00 11.4 10 Este 15 Nordeste 0 -- -- 78
2021-02-15 21:00:00 12.1 9 Este 14 Este 0 -- -- 75
2021-02-15 20:00:00 13.1 10 Este 17 Este 0 -- -- 72
2021-02-15 19:00:00 14.9 8 Este 23 Este 0 -- -- 65
2021-02-15 18:00:00 17.2 17 Este 34 Este 0 -- -- 53
2021-02-15 17:00:00 17.9 19 Este 28 Este 0 -- -- 53
2021-02-15 16:00:00 18.2 17 Este 32 Este 0 -- -- 54
2021-02-15 15:00:00 17.6 18 Este 32 Este 0 -- -- 58
2021-02-15 14:00:00 16.5 19 Este 33 Este 0 -- -- 57
2021-02-15 13:00:00 15.8 16 Este 26 Este 0 -- -- 59
2021-02-15 12:00:00 13.9 16 Nordeste 31 Este 0 -- -- 66
2021-02-15 11:00:00 12.3 17 Nordeste 28 Nordeste 0 -- -- 71
2021-02-15 10:00:00 10.3 9 Nordeste 19 Este 0 -- -- 79
2021-02-15 09:00:00 7.9 11 Nordeste 16 Nordeste 0 -- -- 87
2021-02-15 08:00:00 7.3 11 Este 17 Este 0 -- -- 88
2021-02-15 07:00:00 7.4 5 Norte 12 Nordeste 0 -- -- 87
2021-02-15 06:00:00 8.8 9 Este 19 Nordeste 0 -- -- 80
2021-02-15 05:00:00 9.7 10 Este 15 Nordeste 0 -- -- 76
2021-02-15 04:00:00 9.4 10 Este 14 Nordeste 0 -- -- 79
2021-02-15 03:00:00 9.4 6 Nordeste 10 Nordeste 0 -- -- 81
2021-02-15 02:00:00 10.2 9 Este 12 Este 0 -- -- 78
2021-02-15 01:00:00 11.1 9 Este 13 Este 0 -- -- 74
2021-02-15 00:00:00 10.9 10 Este 14 Este 0 -- -- 76
2021-02-14 23:00:00 11.5 8 Este 15 Este 0 -- -- 74
2021-02-14 22:00:00 11.9 6 Este 10 Este 0 -- -- 73
2021-02-14 21:00:00 12.5 8 Este 15 Este 0 -- -- 73
2021-02-14 20:00:00 13.5 11 Este 14 Este 0 -- -- 72
2021-02-14 19:00:00 15.4 8 Este 17 Este 0 -- -- 60
2021-02-14 18:00:00 18.7 10 Este 18 Este 0 -- -- 52
2021-02-14 17:00:00 18.9 11 Este 18 Este 0 -- -- 52
2021-02-14 16:00:00 18.7 10 Este 17 Este 0 -- -- 55
2021-02-14 15:00:00 18.1 11 Este 22 Este 0 -- -- 55
2021-02-14 14:00:00 17 8 Este 23 Este 0 -- -- 60
2021-02-14 13:00:00 15.3 11 Este 17 Nordeste 0 -- -- 65
2021-02-14 12:00:00 13.2 9 Nordeste 15 Nordeste 0 -- -- 70
2021-02-14 11:00:00 11.5 7 Este 14 Nordeste 0 -- -- 78
2021-02-14 10:00:00 9.9 5 Nordeste 14 Nordeste 0 -- -- 83
2021-02-14 09:00:00 7.2 9 Este 17 Nordeste 0 -- -- 92
2021-02-14 08:00:00 6.9 6 Nordeste 9 Nordeste 0 -- -- 94
2021-02-14 07:00:00 6.5 5 Este 9 Este 0 -- -- 93
2021-02-14 06:00:00 7 8 Este 12 Nordeste 0 -- -- 92
2021-02-14 05:00:00 6.6 2 Nordeste 10 Este 0 -- -- 91
2021-02-14 04:00:00 6.6 10 Este 19 Este 0 -- -- 92
2021-02-14 03:00:00 8.3 0 Calma 5 Noroeste 0 -- -- 87
2021-02-14 02:00:00 8 0 Calma 5 Noroeste 0 -- -- 86
2021-02-14 01:00:00 9.1 0 Calma 6 Este 0 -- -- 78
2021-02-14 00:00:00 9.9 2 Oeste 5 Norte 0 -- -- 73
2021-02-13 23:00:00 11.2 2 Sudoeste 3 Oeste 0 -- -- 63
2021-02-13 22:00:00 11.6 0 Calma 4 Noroeste 0 -- -- 61
2021-02-13 21:00:00 12.6 3 Noroeste 6 Noroeste 0 -- -- 59
2021-02-13 20:00:00 13.8 3 Oeste 5 Oeste 0 -- -- 54
2021-02-13 19:00:00 16 0 Calma 6 Sudoeste 0 -- -- 45
2021-02-13 18:00:00 18.1 3 Oeste 11 Sudoeste 0 -- -- 40
2021-02-13 17:00:00 18.2 6 Sur 13 Sur 0 -- -- 43
2021-02-13 16:00:00 17.9 5 Sur 12 Sur 0 -- -- 41
2021-02-13 15:00:00 16.8 5 Sudoeste 14 Sudoeste 0 -- -- 44
2021-02-13 14:00:00 15 4 Sur 12 Sudoeste 0 -- -- 62
2021-02-13 13:00:00 12.8 6 Sudoeste 13 Sudoeste 0 -- -- 79
2021-02-13 08:00:00 -- -- -- -- -- -- -- -- --
2021-02-13 07:00:00 6.1 2 Este 6 Este 0 -- -- 95
2021-02-13 06:00:00 7.5 3 Sur 10 Sudoeste 0 -- -- 95
2021-02-13 05:00:00 7.3 2 Sudoeste 13 Sudoeste 0 -- -- 93
2021-02-13 04:00:00 8 9 Sudoeste 15 Sudoeste 0 -- -- 91
2021-02-13 03:00:00 8.1 4 Sudoeste 8 Sudoeste 0 -- -- 89
2021-02-13 02:00:00 9.2 0 Calma 9 Sudoeste 0 -- -- 84
2021-02-13 01:00:00 9.7 8 Sudoeste 13 Sur 0 -- -- 83
2021-02-13 00:00:00 10.4 4 Sudoeste 7 Sudoeste 0 -- -- 81
2021-02-12 23:00:00 11.2 5 Sudoeste 9 Sudoeste 0 -- -- 76
2021-02-12 22:00:00 11.6 3 Sudoeste 9 Sudoeste 0 -- -- 75
2021-02-12 21:00:00 12 4 Sudoeste 17 Sudoeste 0 -- -- 73
2021-02-12 20:00:00 12.5 13 Sudoeste 22 Sudoeste 0 -- -- 69
2021-02-12 19:00:00 13.3 12 Sudoeste 24 Sudoeste 0 -- -- 67
2021-02-12 18:00:00 16.5 13 Oeste 24 Oeste 0 -- -- 56
2021-02-12 17:00:00 17.1 17 Oeste 26 Oeste 0 -- -- 55
2021-02-12 16:00:00 17.7 12 Sudoeste 25 Sudoeste 0 -- -- 57
2021-02-12 15:00:00 16.8 17 Sudoeste 26 Oeste 0 -- -- 61
2021-02-12 14:00:00 16.1 10 Oeste 24 Oeste 0 -- -- 67
2021-02-12 13:00:00 14.6 8 Oeste 26 Sudoeste 0 -- -- 74
2021-02-12 12:00:00 13.9 20 Sudoeste 30 Sudoeste 0 -- -- 77
2021-02-12 11:00:00 12.4 17 Sudoeste 28 Sudoeste 0 -- -- 86
2021-02-12 10:00:00 10.4 22 Sudoeste 28 Sudoeste 0 -- -- 95
2021-02-12 09:00:00 9.1 16 Sudoeste 21 Sudoeste 0 -- -- 97
2021-02-12 08:00:00 9.2 14 Sudoeste 24 Sudoeste 0 -- -- 97
2021-02-12 07:00:00 9.4 18 Sudoeste 26 Sudoeste 0 -- -- 96
2021-02-12 06:00:00 10 17 Sudoeste 26 Sudoeste 0 -- -- 96
2021-02-12 05:00:00 10.6 13 Sudoeste 32 Sudoeste 0 -- -- 96
2021-02-12 04:00:00 11.6 21 Sudoeste 38 Sudoeste 0 -- -- 96
2021-02-12 03:00:00 12.2 21 Sudoeste 28 Sudoeste 0.2 -- -- 97
2021-02-12 02:00:00 12.3 14 Sudoeste 23 Sur 0.8 -- -- 97
2021-02-12 01:00:00 12.2 17 Sudoeste 28 Sur 5.2 -- -- 96
2021-02-12 00:00:00 12.7 17 Sur 27 Sudeste 0 -- -- 93
2021-02-11 23:00:00 12.8 16 Sur 26 Sur 0 -- -- 94
2021-02-11 22:00:00 13.2 17 Sur 27 Sur 0 -- -- 92
2021-02-11 21:00:00 13.4 13 Sudeste 22 Sur 0 -- -- 90
2021-02-11 20:00:00 13.5 13 Sudeste 18 Sudeste 0 -- -- 87
2021-02-11 19:00:00 14.3 15 Sur 27 Sur 0 -- -- 85
2021-02-11 18:00:00 15 15 Sur 23 Sur 0 -- -- 84
2021-02-11 17:00:00 16.6 9 Sur 20 Sudoeste 0 -- -- 78
2021-02-11 16:00:00 15.4 9 Sur 26 Sur 0 -- -- 84
2021-02-11 15:00:00 15.2 17 Sur 27 Sudeste 0 -- -- 84
2021-02-11 14:00:00 14.9 17 Sur 24 Sur 0 -- -- 86
2021-02-11 13:00:00 14.2 14 Sur 22 Sur 0 -- -- 92
2021-02-11 12:00:00 13.2 13 Sur 25 Sur 0 -- -- 96
2021-02-11 11:00:00 12.5 15 Sur 25 Sur 0 -- -- 97
2021-02-11 10:00:00 11.9 12 Sudeste 19 Sudeste 0 -- -- 98
2021-02-11 09:00:00 11.9 7 Sur 10 Sur 0 -- -- 98
2021-02-11 08:00:00 11.9 7 Sur 14 Sudoeste 0 -- -- 98
2021-02-11 07:00:00 12.1 10 Sudoeste 22 Sur 0 -- -- 98
2021-02-11 06:00:00 12.2 13 Sudoeste 23 Sudoeste 0.4 -- -- 98
2021-02-11 05:00:00 12.5 7 Sudoeste 18 Sudoeste 0.8 -- -- 97
2021-02-11 04:00:00 12.5 12 Sudoeste 21 Sudoeste 0 -- -- 97
2021-02-11 03:00:00 12.6 7 Sudoeste 14 Sudoeste 0 -- -- 97
2021-02-11 02:00:00 12.5 7 Sudoeste 14 Sudoeste 0.2 -- -- 97
2021-02-11 01:00:00 12.4 12 Sudoeste 22 Sudoeste 0 -- -- 96
2021-02-11 00:00:00 11.9 10 Sur 22 Sur 0 -- -- 96
2021-02-10 23:00:00 11.9 8 Sudoeste 13 Sudoeste 0 -- -- 93
2021-02-10 22:00:00 12.6 7 Sur 17 Sudoeste 0 -- -- 84
2021-02-10 21:00:00 12.6 9 Sur 15 Sudoeste 0 -- -- 81
2021-02-10 20:00:00 12.4 6 Sur 9 Sudeste 0 -- -- 77
2021-02-10 19:00:00 12.7 5 Sudeste 13 Sudoeste 0 -- -- 76
2021-02-10 18:00:00 12.9 10 Sudoeste 22 Sudoeste 0 -- -- 73
2021-02-10 17:00:00 13 12 Sudoeste 27 Sudoeste 0 -- -- 73
2021-02-10 16:00:00 14.8 15 Sudoeste 29 Sudoeste 0 -- -- 64
2021-02-10 15:00:00 16.1 16 Sudoeste 33 Sudoeste 0 -- -- 58
2021-02-10 14:00:00 15.2 19 Sudoeste 31 Oeste 0 -- -- 61
2021-02-10 13:00:00 14.3 14 Sudoeste 28 Oeste 0 -- -- 63
2021-02-10 12:00:00 13.4 17 Sudoeste 24 Sudoeste 0 -- -- 70
2021-02-10 11:00:00 12.4 12 Sudoeste 23 Sudoeste 0 -- -- 75
2021-02-10 10:00:00 10.3 14 Sudoeste 23 Sudoeste 0 -- -- 83
2021-02-10 09:00:00 8.6 10 Sudoeste 28 Sudoeste 0 -- -- 88
2021-02-10 08:00:00 8.8 20 Sudoeste 28 Sudoeste 0 -- -- 85
2021-02-10 07:00:00 9.2 20 Sudoeste 31 Sur 0 -- -- 83
2021-02-10 06:00:00 9.5 15 Sudoeste 35 Oeste 0 -- -- 82
2021-02-10 05:00:00 10 24 Oeste 48 Sudoeste 0 -- -- 88
2021-02-10 04:00:00 10.4 30 Sudoeste 53 Sudoeste 0 -- -- 86
2021-02-10 03:00:00 10.1 28 Sudoeste 53 Sudoeste 0 -- -- 87
2021-02-10 02:00:00 9.9 34 Sudoeste 53 Sudoeste 0.2 -- -- 92
2021-02-10 01:00:00 9.4 26 Sudoeste 49 Sudoeste 0 -- -- 91
2021-02-10 00:00:00 9.1 21 Sudoeste 43 Sudoeste 0 -- -- 94
2021-02-09 23:00:00 9.6 26 Sudoeste 41 Sudoeste 0 -- -- 90
2021-02-09 22:00:00 9.5 27 Sudoeste 44 Sudoeste 0 -- -- 89
2021-02-09 21:00:00 8.9 23 Sudoeste 37 Sudoeste 0 -- -- 90
2021-02-09 20:00:00 9.4 24 Sudoeste 39 Sudoeste 0 -- -- 86
2021-02-09 19:00:00 10.1 22 Oeste 54 Oeste 0.6 -- -- 89
2021-02-09 18:00:00 12.4 35 Sudoeste 50 Sudoeste 0 -- -- 76
2021-02-09 17:00:00 12.8 28 Sudoeste 51 Sudoeste 0 -- -- 76
2021-02-09 16:00:00 12.1 27 Sudoeste 53 Sudoeste 0 -- -- 80
2021-02-09 15:00:00 11.8 30 Sudoeste 48 Sudoeste 0.2 -- -- 86
2021-02-09 14:00:00 10.3 26 Sudoeste 40 Sudoeste 0.6 -- -- 94
2021-02-09 13:00:00 10.6 21 Sudoeste 56 Sudoeste 1.6 -- -- 95
2021-02-09 12:00:00 10.9 28 Sudoeste 57 Sur 4.4 -- -- 95
2021-02-09 11:00:00 10.2 30 Sur 44 Sur 2.2 -- -- 95
2021-02-09 10:00:00 10.1 23 Sur 41 Sur 2.2 -- -- 94
2021-02-09 09:00:00 10 25 Sur 47 Sur 1.2 -- -- 94
2021-02-09 08:00:00 9.7 18 Sur 29 Sur 2.8 -- -- 97
2021-02-09 07:00:00 9.2 9 Sur 28 Sur 0.4 -- -- 95
2021-02-09 06:00:00 9.7 21 Sur 38 Sudoeste 0 -- -- 92
2021-02-09 05:00:00 9.2 15 Sur 26 Sur 0.2 -- -- 97
2021-02-09 04:00:00 9 17 Sur 28 Sur 1.2 -- -- 97
2021-02-09 03:00:00 8.7 12 Sur 25 Sur 0 -- -- 96
2021-02-09 02:00:00 8.5 16 Sur 24 Sur 0.4 -- -- 96
2021-02-09 01:00:00 8.8 10 Sur 28 Sur 0 -- -- 93
2021-02-09 00:00:00 9 16 Sur 26 Sudoeste 0 -- -- 89
2021-02-08 23:00:00 9.1 14 Sudoeste 23 Sudoeste 0 -- -- 87
2021-02-08 22:00:00 9.2 14 Sudoeste 28 Sudoeste 0 -- -- 81
2021-02-08 21:00:00 9.4 19 Sudoeste 32 Sudoeste 0 -- -- 75
2021-02-08 20:00:00 9.1 21 Sudoeste 32 Sudoeste 0 -- -- 78
2021-02-08 19:00:00 10.1 23 Sudoeste 35 Sudoeste 0 -- -- 66
2021-02-08 18:00:00 11 19 Sudoeste 45 Sudoeste 0 -- -- 66
2021-02-08 17:00:00 12.6 33 Sudoeste 53 Sudoeste 0 -- -- 59
2021-02-08 16:00:00 13.4 21 Sudoeste 42 Sudoeste 0 -- -- 65
2021-02-08 15:00:00 12.3 19 Sudoeste 48 Sudoeste 0 -- -- 69
2021-02-08 14:00:00 12.7 27 Sudoeste 49 Sudoeste 0 -- -- 70
2021-02-08 13:00:00 12.5 27 Sudoeste 45 Sudoeste 0 -- -- 73
2021-02-08 12:00:00 11.3 24 Sudoeste 37 Sudoeste 0 -- -- 81
2021-02-08 11:00:00 10 22 Sudoeste 40 Sudoeste 0 -- -- 89
2021-02-08 10:00:00 9.2 21 Sudoeste 32 Sudoeste 0 -- -- 97
2021-02-08 09:00:00 8 20 Sudoeste 31 Sudoeste 1.6 -- -- 96
2021-02-08 08:00:00 8.2 17 Sudoeste 25 Sudoeste 0 -- -- 96
2021-02-08 07:00:00 7.8 16 Sudoeste 25 Sudoeste 0 -- -- 95
2021-02-08 06:00:00 7.6 19 Sudoeste 31 Sudoeste 0 -- -- 93
2021-02-08 05:00:00 8.1 19 Sudoeste 33 Sudoeste 0 -- -- 95
2021-02-08 04:00:00 8.9 18 Sudoeste 30 Sudoeste 0 -- -- 97
2021-02-08 03:00:00 10.1 19 Sudoeste 45 Sudoeste 2 -- -- 98
2021-02-08 02:00:00 9.8 16 Sur 40 Sur 3.4 -- -- 98
2021-02-08 01:00:00 9.3 22 Sur 41 Sur 2.6 -- -- 97
2021-02-08 00:00:00 9.1 18 Sur 42 Sur 3.4 -- -- 96
2021-02-07 23:00:00 9.1 21 Sur 40 Sur 0 -- -- 94
2021-02-07 22:00:00 8.8 18 Sur 30 Sur 0 -- -- 93
2021-02-07 21:00:00 9.1 12 Sur 18 Sudeste 0 -- -- 88
2021-02-07 20:00:00 9 10 Sur 17 Sur 0 -- -- 87
2021-02-07 19:00:00 8.7 8 Sur 28 Sudoeste 0 -- -- 86
2021-02-07 18:00:00 8.8 18 Sudoeste 28 Sudoeste 0.2 -- -- 84
2021-02-07 17:00:00 8.6 16 Sudoeste 32 Sudoeste 0 -- -- 88
2021-02-07 16:00:00 8.8 17 Sudoeste 29 Sudoeste 0 -- -- 83
2021-02-07 15:00:00 9 22 Sudoeste 31 Sudoeste 0 -- -- 81
2021-02-07 14:00:00 10.4 22 Sudoeste 32 Sudoeste 0 -- -- 61
2021-02-07 13:00:00 10.1 12 Oeste 23 Sudoeste 0 -- -- 76
2021-02-07 12:00:00 9.7 14 Sudoeste 21 Oeste 0 -- -- 78
2021-02-07 11:00:00 7.7 12 Sudoeste 19 Sudoeste 0 -- -- 87
2021-02-07 10:00:00 6.2 10 Sudoeste 16 Sudoeste 0 -- -- 89
2021-02-07 09:00:00 4.5 5 Sudoeste 14 Sudoeste 0 -- -- 91
2021-02-07 08:00:00 4.6 6 Sur 18 Oeste 0 -- -- 90
2021-02-07 07:00:00 4.9 8 Oeste 15 Sudoeste 0 -- -- 90
2021-02-07 06:00:00 5.2 4 Sudoeste 11 Sudoeste 0 -- -- 91
2021-02-07 05:00:00 5.7 8 Oeste 16 Sudoeste 0 -- -- 91
2021-02-07 04:00:00 5.7 5 Oeste 9 Oeste 0 -- -- 91
2021-02-07 03:00:00 6.3 0 Calma 6 Oeste 0 -- -- 90
2021-02-07 02:00:00 6.8 5 Oeste 12 Oeste 0 -- -- 89
2021-02-07 01:00:00 7.5 5 Noroeste 17 Norte 0 -- -- 87
2021-02-07 00:00:00 7.9 9 Norte 13 Noroeste 0 -- -- 87
2021-02-06 23:00:00 7.8 5 Noroeste 9 Noroeste 0 -- -- 90
2021-02-06 22:00:00 9.1 3 Sudoeste 11 Noroeste 0 -- -- 89
2021-02-06 21:00:00 9.5 6 Oeste 13 Norte 0 -- -- 89
2021-02-06 20:00:00 9.4 5 Noroeste 9 Noroeste 0 -- -- 90
2021-02-06 19:00:00 10.1 4 Noroeste 10 Norte 0.2 -- -- 90
2021-02-06 18:00:00 10.9 6 Oeste 10 Sudoeste 0 -- -- 86
2021-02-06 17:00:00 10.6 7 Oeste 20 Oeste 0 -- -- 85
2021-02-06 16:00:00 10.8 9 Oeste 20 Sudoeste 0 -- -- 83
2021-02-06 15:00:00 12.6 10 Sudoeste 17 Sudoeste 0 -- -- 80
2021-02-06 14:00:00 11.6 10 Sudoeste 15 Sudoeste 0 -- -- 88
2021-02-06 13:00:00 10.1 8 Sudoeste 12 Sudoeste 0.2 -- -- 96
2021-02-06 12:00:00 9.8 6 Sudoeste 9 Sudoeste 0 -- -- 96
2021-02-06 11:00:00 9.5 3 Oeste 6 Oeste 0 -- -- 99
2021-02-06 10:00:00 9 3 Noroeste 6 Noroeste 0 -- -- 99
2021-02-06 09:00:00 8.3 0 Calma 4 Noroeste 0.2 -- -- 99
2021-02-06 08:00:00 8.2 3 Oeste 6 Oeste 0 -- -- 99
2021-02-06 07:00:00 8.2 3 Noroeste 6 Oeste 0 -- -- 99
2021-02-06 06:00:00 8.3 3 Noroeste 4 Noroeste 0 -- -- 99
2021-02-06 05:00:00 8.4 0 Calma 6 Noroeste 0.2 -- -- 99
2021-02-06 04:00:00 8.5 3 Norte 6 Norte 0 -- -- 99
2021-02-06 03:00:00 8.5 4 Norte 5 Norte 0.4 -- -- 99
2021-02-06 02:00:00 8.4 3 Norte 9 Norte 0.2 -- -- 99
2021-02-06 01:00:00 8.6 7 Norte 11 Nordeste 0.6 -- -- 98
2021-02-06 00:00:00 8.8 7 Nordeste 10 Nordeste 1.4 -- -- 98
2021-02-05 23:00:00 8.9 3 Nordeste 11 Norte 0.2 -- -- 98
2021-02-05 22:00:00 8.8 8 Norte 14 Nordeste 0 -- -- 98
2021-02-05 21:00:00 8.8 7 Nordeste 12 Nordeste 0.4 -- -- 98
2021-02-05 20:00:00 9.3 8 Este 10 Este 0.8 -- -- 98
2021-02-05 19:00:00 9.5 5 Sudeste 8 Sudeste 1.8 -- -- 98
2021-02-05 18:00:00 9.8 0 Calma 7 Norte 0.6 -- -- 98
2021-02-05 17:00:00 10.1 4 Nordeste 8 Nordeste 1.4 -- -- 98
2021-02-05 16:00:00 10.2 5 Este 10 Este 1.6 -- -- 98
2021-02-05 15:00:00 10.3 8 Este 15 Este 1.8 -- -- 98
2021-02-05 14:00:00 10.2 9 Sudeste 16 Sudeste 1.4 -- -- 98
2021-02-05 13:00:00 10.2 8 Este 14 Este 2 -- -- 98
2021-02-05 12:00:00 10 10 Nordeste 13 Norte 2 -- -- 98
2021-02-05 11:00:00 9.8 5 Este 12 Este 1.6 -- -- 98
2021-02-05 10:00:00 9.3 2 Este 10 Nordeste 0.4 -- -- 98
2021-02-05 09:00:00 9.2 7 Nordeste 19 Nordeste 0.4 -- -- 98
2021-02-05 08:00:00 9.1 9 Este 15 Este 0 -- -- 98
2021-02-05 07:00:00 8.5 5 Este 13 Nordeste 0.2 -- -- 99
2021-02-05 06:00:00 8.4 3 Norte 8 Norte 0.6 -- -- 98
2021-02-05 05:00:00 8.4 4 Norte 12 Norte 0.2 -- -- 98
2021-02-05 04:00:00 8.5 5 Norte 13 Norte 0.2 -- -- 98
2021-02-05 03:00:00 8.4 6 Noroeste 11 Noroeste 0.6 -- -- 98
2021-02-05 02:00:00 8.6 5 Nordeste 21 Nordeste 0.6 -- -- 98
2021-02-05 01:00:00 8 11 Nordeste 19 Nordeste 0 -- -- 98
2021-02-05 00:00:00 8.2 3 Noroeste 14 Sudoeste 2.4 -- -- 97
2021-02-04 23:00:00 8 3 Oeste 9 Nordeste 0.2 -- -- 97
2021-02-04 22:00:00 8 7 Nordeste 12 Nordeste 0 -- -- 97
2021-02-04 21:00:00 8.2 0 Calma 9 Norte 0 -- -- 97
2021-02-04 20:00:00 8.6 8 Nordeste 12 Este 0.4 -- -- 95
2021-02-04 19:00:00 8.7 6 Nordeste 18 Nordeste 0 -- -- 95
2021-02-04 18:00:00 9.8 9 Nordeste 17 Este 0 -- -- 95
2021-02-04 17:00:00 10.1 9 Nordeste 17 Este 1 -- -- 97
2021-02-04 16:00:00 9.9 4 Este 19 Nordeste 0.2 -- -- 97
2021-02-04 15:00:00 9.7 7 Nordeste 13 Este 1.6 -- -- 99
2021-02-04 14:00:00 9.5 7 Nordeste 14 Nordeste 1.6 -- -- 99
2021-02-04 13:00:00 9.1 5 Nordeste 11 Nordeste 3.6 -- -- 99
2021-02-04 12:00:00 9 7 Este 12 Este 4 -- -- 98
2021-02-04 11:00:00 9 4 Este 14 Este 2 -- -- 98
2021-02-04 10:00:00 9.3 7 Este 13 Este 2.2 -- -- 98
2021-02-04 09:00:00 9.2 8 Sudeste 19 Este 1.8 -- -- 98
2021-02-04 08:00:00 9.4 13 Este 18 Este 0.8 -- -- 98
2021-02-04 07:00:00 9.8 7 Sudeste 17 Sudeste 0 -- -- 98
2021-02-04 06:00:00 10.1 10 Sudeste 18 Sur 0.2 -- -- 98
2021-02-04 05:00:00 10.4 10 Sudeste 15 Sudeste 0.6 -- -- 98
2021-02-04 04:00:00 10.4 2 Sudeste 10 Sur 0 -- -- 98
2021-02-04 03:00:00 10.6 5 Sur 18 Sudoeste 2.8 -- -- 97
2021-02-04 02:00:00 11 8 Sudeste 17 Sudeste 0 -- -- 97
2021-02-04 01:00:00 11.2 12 Sudeste 17 Sur 0 -- -- 98
2021-02-04 00:00:00 11.2 10 Sudeste 17 Sur 0 -- -- 97
2021-02-03 23:00:00 11.1 6 Sur 12 Sur 0 -- -- 97
2021-02-03 22:00:00 11.2 7 Sur 15 Sur 0 -- -- 95
2021-02-03 21:00:00 11.4 9 Sur 19 Sudeste 0.2 -- -- 93
2021-02-03 20:00:00 11.4 12 Sur 22 Sur 0.2 -- -- 95
2021-02-03 19:00:00 12.1 15 Sudeste 22 Sudeste 0 -- -- 97
2021-02-03 18:00:00 12.4 8 Sudeste 17 Sur 0 -- -- 97
2021-02-03 17:00:00 12 13 Sudoeste 26 Sur 0.8 -- -- 96
2021-02-03 16:00:00 12.1 11 Sudoeste 24 Sudoeste 1.6 -- -- 97
2021-02-03 15:00:00 12 10 Sudoeste 19 Sudoeste 4.2 -- -- 97
2021-02-03 14:00:00 12.2 12 Sudoeste 28 Sur 0.6 -- -- 96
2021-02-03 13:00:00 12 9 Sur 31 Sur 1.4 -- -- 96
2021-02-03 12:00:00 12.1 17 Sur 27 Sur 1.2 -- -- 96
2021-02-03 11:00:00 11.2 12 Sur 28 Sur 0.2 -- -- 97
2021-02-03 10:00:00 10.7 18 Sur 30 Sur 0.8 -- -- 97
2021-02-03 09:00:00 10.4 20 Sudeste 30 Sur 0.6 -- -- 97
2021-02-03 08:00:00 10.3 19 Sur 31 Sur 0.2 -- -- 97
2021-02-03 07:00:00 10.2 21 Sudeste 31 Sur 0.4 -- -- 96
2021-02-03 06:00:00 10.3 15 Sur 26 Sur 0.4 -- -- 95
2021-02-03 05:00:00 10.4 15 Sur 31 Sur 0.2 -- -- 94
2021-02-03 04:00:00 10.9 20 Sur 34 Sur 0 -- -- 90
2021-02-03 03:00:00 10.7 22 Sur 37 Sur 0 -- -- 91
2021-02-03 02:00:00 11.3 20 Sur 32 Sur 0 -- -- 87
2021-02-03 01:00:00 11.5 18 Sur 30 Sur 0 -- -- 86
2021-02-03 00:00:00 11.5 12 Sur 21 Sur 0 -- -- 88
2021-02-02 23:00:00 11.4 10 Sur 18 Sur 0 -- -- 89
2021-02-02 22:00:00 11.8 11 Sur 28 Sudoeste 0 -- -- 87
2021-02-02 21:00:00 12.4 18 Sur 28 Sur 0 -- -- 81
2021-02-02 20:00:00 12.5 12 Sur 19 Sur 0 -- -- 80
2021-02-02 19:00:00 12.6 10 Sur 18 Sur 0 -- -- 83
2021-02-02 18:00:00 13.2 9 Sur 26 Sur 0 -- -- 78
2021-02-02 17:00:00 13.6 16 Sur 29 Sur 0 -- -- 75
2021-02-02 16:00:00 13.5 17 Sudoeste 30 Sudoeste 0 -- -- 79
2021-02-02 15:00:00 12.9 9 Sudoeste 30 Sudoeste 0 -- -- 83
2021-02-02 14:00:00 13.3 19 Sur 28 Sur 0 -- -- 77
2021-02-02 13:00:00 13.9 14 Sur 28 Sudoeste 0 -- -- 78
2021-02-02 12:00:00 13.7 19 Sur 30 Sur 0 -- -- 77
2021-02-02 11:00:00 12.2 9 Sudoeste 15 Sur 0 -- -- 93
2021-02-02 10:00:00 11.2 9 Sur 15 Sur 0 -- -- 96
2021-02-02 09:00:00 10.5 8 Sur 15 Sudoeste 0 -- -- 97
2021-02-02 08:00:00 10.8 12 Sudoeste 19 Sur 0 -- -- 97
2021-02-02 07:00:00 11.3 13 Sudoeste 21 Sur 0 -- -- 98
2021-02-02 06:00:00 11.4 9 Sudoeste 20 Sudoeste 0 -- -- 98
2021-02-02 05:00:00 11.6 14 Sudoeste 23 Sur 0 -- -- 98
2021-02-02 04:00:00 11.4 11 Sur 18 Sur 0.2 -- -- 97
2021-02-02 03:00:00 11.5 12 Sudoeste 23 Sur 0 -- -- 97
2021-02-02 02:00:00 11 9 Sur 13 Sur 0 -- -- 95
2021-02-02 01:00:00 11.6 8 Sur 13 Sudeste 0 -- -- 89
2021-02-02 00:00:00 11.6 8 Sudeste 13 Sur 0 -- -- 87
2021-02-01 23:00:00 12 10 Sur 15 Sur 0 -- -- 87
2021-02-01 22:00:00 12.1 11 Sur 18 Sur 0 -- -- 86
2021-02-01 21:00:00 12.5 7 Sudeste 15 Sudoeste 0 -- -- 82
2021-02-01 20:00:00 12.2 14 Sudoeste 28 Sudoeste 0 -- -- 83
2021-02-01 19:00:00 12.9 20 Sudoeste 30 Sudoeste 0 -- -- 79
2021-02-01 18:00:00 13.8 19 Sudoeste 31 Sudoeste 0 -- -- 74
2021-02-01 17:00:00 14.3 20 Sudoeste 34 Sudoeste 0 -- -- 74
2021-02-01 16:00:00 15.2 18 Sudoeste 33 Sudoeste 0 -- -- 74
2021-02-01 15:00:00 15.3 20 Sudoeste 33 Sudoeste 0 -- -- 74
2021-02-01 14:00:00 15.7 20 Sudoeste 35 Sudoeste 0 -- -- 74
2021-02-01 13:00:00 14.9 23 Sudoeste 34 Sudoeste 0 -- -- 75
2021-02-01 12:00:00 13.8 21 Sudoeste 34 Sur 0 -- -- 78
2021-02-01 11:00:00 13.1 15 Sudoeste 25 Sudoeste 0 -- -- 84
2021-02-01 10:00:00 11 8 Sudoeste 17 Sudoeste 0 -- -- 91
2021-02-01 09:00:00 8.7 2 Oeste 12 Sudoeste 0 -- -- 94
2021-02-01 08:00:00 9.2 9 Sudoeste 14 Sudoeste 0 -- -- 92
2021-02-01 07:00:00 9 2 Sudeste 19 Sudoeste 0 -- -- 92
2021-02-01 06:00:00 10 14 Sudoeste 27 Sudoeste 0 -- -- 88
2021-02-01 05:00:00 10.2 22 Sudoeste 33 Sudoeste 0 -- -- 89
2021-02-01 04:00:00 10.6 25 Sudoeste 32 Sudoeste 0 -- -- 89
2021-02-01 03:00:00 11.2 19 Sudoeste 32 Sudoeste 0 -- -- 88
2021-02-01 02:00:00 11.4 18 Sudoeste 33 Sudoeste 0 -- -- 87
2021-02-01 01:00:00 11.9 23 Sudoeste 35 Sudoeste 0 -- -- 86
2021-02-01 00:00:00 12 24 Sudoeste 36 Sudoeste 0 -- -- 86